Salobrena, Spain
Current Conditions -  °F | °C
As of 10:30 AM on Saturday 25 Oct 2014 (Local Time) from LEGR Reporting Station
Clear Clear  
Wind Chill: 59°   Ceiling: Unl
Heat Index: 59°   Visibility: 6mi
Dew Point: 46°   Wind: 0mph
Humidity: 63%   Direction: NA
Pressure: 30.15"   Gusts: NA
Location:  36.74°N, 3.59°W
Report Text: LEGR 250830Z 00000KT CAVOK 15/08 Q1021
Loading
Personal Weather Stations






























Interactive Weather Map
Tropical Storm Tracking
New forecast layout! Learn more

10-Day Weather Forecast

Advertisements
Track Severe Weather on mobile